Breckenridge, TX

12:02 AM CDT on April 18, 2015 (GMT -0500)
Stephens County | | Change Station
CLOSE
Current Station
Airport
Location: Breckenridge,
Elevation: 1283 ft
Nearby Weather Stations

Elev 1283 ft 32.72 °N, 98.89 °W | Updated 7 minutes ago

Mostly Cloudy
Mostly Cloudy
59 °F
Feels Like 59 °F
N
4
Wind Variable Wind from SSE

Today
High -- | Low -- °F
--% Chance of Precip.
Yesterday
High -- | Low -- °F
Precip. -- in
7:02 AM 8:07 PM
Waning Crescent, 0% visible
Pressure 29.95 in
Visibility 10.0 miles
Clouds Clear
Dew Point 58 °F
Humidity 97%
Rainfall 0.12 in
Snow Depth Not available.
UV 0 out of 12
Pollen 8.90 out of 12
Air Quality Not available.
Flu Activity Local Activity
METAR KBKD 180455Z AUTO 15003KT 10SM CLR 15/15 A2995 RMK AO2 T01510146

More Conditions Fewer Conditions

Pressure 29.95 in
Visibility 10.0 miles
Clouds Clear
Dew Point 58 °F
Humidity 97%
Rainfall 0.12 in
Snow Depth Not available.
UV 0 out of 12
Pollen 8.90 out of 12
Air Quality Not available.
Flu Activity Local Activity
METAR KBKD 180455Z AUTO 15003KT 10SM CLR 15/15 A2995 RMK AO2 T01510146

More Conditions Fewer Conditions

Nowcast | as of 11:22 PM CDT on April 17, 2015

Showers and some embedded thunderstorms will continue to affect areas mainly east of I-35 through 3 am. Some isolated showers will occur farther to the west. Locally heavy rain and cloud to ground lightning will accompany some of the storms as they move east at 15 mph. Runoff from heavy rain may result in some flooding issues across parts of falls...northwestern Robertson and northeastern Milam counties. Otherwise...expect cloudy skies overnight with temperatures remaining in the upper 50s to upper 60s.

×

10-Day Weather Forecast

Almanac

Astronomy

Apr. 18, 2015 Rise Set
Actual Time
Civil Twilight
Nautical Twilight
Astronomical Twilight
Moon
Length of Visible Light
Length of Day
Tomorrow will be .
, % of the Moon is Illuminated

Today's Extremes

State Highs State Lows

Community

WunderPhotos

Upload Photos

1,814,341 photos uploaded!

WunderBlogs® & News

Nearby

Air Quality

  Air Quality AQ Index Pollutant
Not available.

Snow Depth

Station Depth Elevation

Earthquake Activity

City Distance Mag. Time & Date
Minimum magnitude displayed is 2.5.

Coastal Water Temperatures

Place Temperature

Stations

Nearby Weather Stations

Station Location Temp. Windchill Dew Point Humidity Wind Precip. Elev Updated Type